Time;durP1;ratioP1;P1;durP2;ratioP2;P2;SDS_P1;SDS_P2;PMS_P1;PMS_P2;Temp;Humidity;BMP_temperature;BMP_pressure;BME280_temperature;BME280_humidity;BME280_pressure;Samples;Min_cycle;Max_cycle;Signal;HPM_P1;HPM_P2
2021/06/24 00:01:07;0.00;0.00;0.62;0.00;0.00;0.62;3.13;2.27;;;27.80;31.60;;;;;;2237942;62;20395;-66
2021/06/24 00:03:37;0.00;0.00;0.62;0.00;0.00;0.62;4.40;3.17;;;27.80;31.60;;;;;;2242196;61;20452;-65
2021/06/24 00:06:05;0.00;0.00;0.62;0.00;0.00;0.62;4.03;2.50;;;27.80;31.70;;;;;;2238031;62;20368;-62
2021/06/24 00:08:32;0.00;0.00;0.62;0.00;0.00;0.62;4.90;3.20;;;27.80;31.70;;;;;;2241623;62;20689;-63
2021/06/24 00:11:00;0.00;0.00;0.62;0.00;0.00;0.62;5.63;2.67;;;27.80;31.70;;;;;;2242125;62;20617;-63
2021/06/24 00:13:27;0.00;0.00;0.62;0.00;0.00;0.62;4.47;2.47;;;27.80;31.70;;;;;;2238093;62;20375;-66
2021/06/24 00:15:55;0.00;0.00;0.62;0.00;0.00;0.62;4.47;2.57;;;27.80;31.70;;;;;;2238064;62;20359;-64
2021/06/24 00:18:22;0.00;0.00;0.62;0.00;0.00;0.62;3.57;2.47;;;27.80;31.70;;;;;;2238366;62;20359;-66
2021/06/24 00:20:51;0.00;0.00;0.62;0.00;0.00;0.62;4.80;2.43;;;27.80;31.70;;;;;;2237908;62;20601;-64
2021/06/24 00:23:18;0.00;0.00;0.62;0.00;0.00;0.62;5.27;2.90;;;27.80;31.70;;;;;;2241629;61;20417;-66
2021/06/24 00:25:45;0.00;0.00;0.62;0.00;0.00;0.62;3.60;2.77;;;27.80;31.70;;;;;;2242100;62;20359;-63
2021/06/24 00:28:15;0.00;0.00;0.62;0.00;0.00;0.62;7.30;3.00;;;27.80;31.70;;;;;;2241699;62;20593;-64
2021/06/24 00:30:43;0.00;0.00;0.62;0.00;0.00;0.62;5.27;2.90;;;27.80;31.60;;;;;;2241629;62;20688;-63
2021/06/24 00:33:11;0.00;0.00;0.62;0.00;0.00;0.62;4.13;2.67;;;27.80;31.50;;;;;;2242099;61;20383;-65
2021/06/24 00:35:38;0.00;0.00;0.62;0.00;0.00;0.62;3.43;2.37;;;27.80;31.50;;;;;;2241580;62;20360;-66
2021/06/24 00:38:06;0.00;0.00;0.62;0.00;0.00;0.62;6.63;3.37;;;27.80;31.40;;;;;;2237948;62;20575;-65
2021/06/24 00:40:36;0.00;0.00;0.62;0.00;0.00;0.62;5.40;2.80;;;27.80;31.40;;;;;;2241912;62;20593;-66
2021/06/24 00:43:04;0.00;0.00;0.62;0.00;0.00;0.62;3.53;2.70;;;27.80;31.30;;;;;;2237895;62;20401;-67
2021/06/24 00:45:31;0.00;0.00;0.62;0.00;0.00;0.62;4.73;2.97;;;27.80;31.30;;;;;;2241732;62;20684;-63
2021/06/24 00:47:59;0.00;0.00;0.62;0.00;0.00;0.62;4.87;2.77;;;27.80;31.30;;;;;;2238281;62;20370;-63
2021/06/24 00:50:27;0.00;0.00;0.62;0.00;0.00;0.62;5.83;2.70;;;27.80;31.40;;;;;;2237802;62;20363;-67
2021/06/24 00:53:02;0.00;0.00;0.62;0.00;0.00;0.62;3.77;3.07;;;27.80;31.50;;;;;;2241715;61;20600;-66
2021/06/24 00:55:45;0.00;0.00;0.62;0.00;0.00;0.62;4.37;3.20;;;27.80;31.50;;;;;;2235162;62;20359;-64
2021/06/24 00:58:16;0.00;0.00;0.62;0.00;0.00;0.62;5.97;3.03;;;27.80;31.60;;;;;;2241505;62;20363;-65
2021/06/24 01:00:47;0.00;0.00;0.62;0.00;0.00;0.62;5.40;2.73;;;27.70;31.50;;;;;;2237840;62;20754;-66
2021/06/24 01:03:15;0.00;0.00;0.62;0.00;0.00;0.62;3.80;3.13;;;27.70;31.50;;;;;;2241823;61;20395;-65
2021/06/24 01:05:45;0.00;0.00;0.62;0.00;0.00;0.62;3.10;2.73;;;27.70;31.50;;;;;;2237954;62;20444;-64
2021/06/24 01:08:17;0.00;0.00;0.62;0.00;0.00;0.62;4.83;2.87;;;27.80;31.40;;;;;;2241668;62;20359;-66
2021/06/24 01:10:49;0.00;0.00;0.62;0.00;0.00;0.62;4.70;2.60;;;27.70;31.40;;;;;;2238069;62;20363;-66
2021/06/24 01:13:16;0.00;0.00;0.62;0.00;0.00;0.62;5.00;3.50;;;27.70;31.40;;;;;;2237921;62;20387;-65
2021/06/24 01:15:43;0.00;0.00;0.62;0.00;0.00;0.62;6.13;3.00;;;27.70;31.40;;;;;;2241641;62;20355;-65
2021/06/24 01:18:10;0.00;0.00;0.62;0.00;0.00;0.62;2.67;2.20;;;27.70;31.40;;;;;;2241768;62;20360;-66
2021/06/24 01:20:37;0.00;0.00;0.62;0.00;0.00;0.62;2.57;2.33;;;27.70;31.40;;;;;;2237803;62;20379;-65
2021/06/24 01:23:09;0.00;0.00;0.62;0.00;0.00;0.62;3.80;2.50;;;27.70;31.40;;;;;;2237802;62;20426;-62
2021/06/24 01:25:38;0.00;0.00;0.62;0.00;0.00;0.62;5.17;2.60;;;27.70;31.40;;;;;;2238082;62;20665;-64
2021/06/24 01:28:09;0.00;0.00;0.62;0.00;0.00;0.62;4.87;2.87;;;27.70;31.40;;;;;;2241681;62;20398;-65
2021/06/24 01:30:41;0.00;0.00;0.62;0.00;0.00;0.62;4.03;2.60;;;27.70;31.40;;;;;;2237746;62;20360;-64
2021/06/24 01:33:09;0.00;0.00;0.62;0.00;0.00;0.62;3.40;3.07;;;27.70;31.40;;;;;;2241838;61;20386;-65
2021/06/24 01:35:36;0.00;0.00;0.62;0.00;0.00;0.62;3.10;2.57;;;27.70;31.40;;;;;;2241658;62;20495;-62
2021/06/24 01:38:06;0.00;0.00;0.62;0.00;0.00;0.62;4.90;2.80;;;27.60;31.30;;;;;;2241422;62;20356;-66
2021/06/24 01:40:35;0.00;0.00;0.62;0.00;0.00;0.62;6.23;2.80;;;27.60;31.30;;;;;;2238023;62;20723;-63
2021/06/24 01:43:04;0.00;0.00;0.62;0.00;0.00;0.62;4.73;3.20;;;27.60;31.30;;;;;;2241525;61;20798;-65
2021/06/24 01:45:31;0.00;0.00;0.62;0.00;0.00;0.62;4.20;2.73;;;27.60;31.30;;;;;;2241517;62;20368;-65
2021/06/24 01:47:57;0.00;0.00;0.62;0.00;0.00;0.62;4.83;2.57;;;27.60;31.30;;;;;;2241849;62;20700;-67
2021/06/24 01:50:24;0.00;0.00;0.62;0.00;0.00;0.62;3.93;3.17;;;27.60;31.40;;;;;;2241413;62;20368;-64
2021/06/24 01:52:51;0.00;0.00;0.62;0.00;0.00;0.62;5.37;2.60;;;27.60;31.30;;;;;;2234584;62;20379;-63
2021/06/24 01:55:31;0.00;0.00;0.62;0.00;0.00;0.62;4.10;2.40;;;27.60;31.40;;;;;;2241856;62;20577;-64
2021/06/24 01:58:00;0.00;0.00;0.62;0.00;0.00;0.62;4.30;3.00;;;27.60;31.30;;;;;;2237707;62;20352;-65
2021/06/24 02:00:47;0.00;0.00;0.62;0.00;0.00;0.62;4.47;2.90;;;27.60;31.40;;;;;;2241409;62;20367;-63
2021/06/24 02:03:21;0.00;0.00;0.62;0.00;0.00;0.62;5.03;3.37;;;27.60;31.40;;;;;;2238122;62;20397;-63
2021/06/24 02:05:50;0.00;0.00;0.62;0.00;0.00;0.62;4.90;2.70;;;27.60;31.40;;;;;;2241522;62;20799;-66
2021/06/24 02:08:19;0.00;0.00;0.62;0.00;0.00;0.62;5.10;2.90;;;27.60;31.40;;;;;;2237819;62;20602;-66
2021/06/24 02:11:06;0.00;0.00;0.62;0.00;0.00;0.62;3.97;3.10;;;27.60;31.40;;;;;;2241321;62;20458;-63
2021/06/24 02:13:35;0.00;0.00;0.62;0.00;0.00;0.62;4.33;2.80;;;27.50;31.40;;;;;;2237911;62;20399;-64
2021/06/24 02:16:08;0.00;0.00;0.62;0.00;0.00;0.62;2.70;2.50;;;27.50;31.40;;;;;;2242225;62;20365;-63
2021/06/24 02:18:35;0.00;0.00;0.62;0.00;0.00;0.62;7.43;3.53;;;27.50;31.50;;;;;;2241988;62;20369;-63
2021/06/24 02:21:08;0.00;0.00;0.62;0.00;0.00;0.62;4.37;2.70;;;27.50;31.50;;;;;;2238359;62;20359;-67
2021/06/24 02:23:55;0.00;0.00;0.62;0.00;0.00;0.62;4.13;2.77;;;27.50;31.50;;;;;;2238628;62;20414;-67
2021/06/24 02:26:27;0.00;0.00;0.62;0.00;0.00;0.62;4.30;2.83;;;27.60;31.60;;;;;;2238424;62;20363;-64
2021/06/24 02:29:14;0.00;0.00;0.62;0.00;0.00;0.62;4.50;2.57;;;27.50;31.50;;;;;;2242012;62;20442;-64
2021/06/24 02:31:43;0.00;0.00;0.62;0.00;0.00;0.62;4.10;3.03;;;27.50;31.50;;;;;;2238699;61;20355;-65
2021/06/24 02:34:23;0.00;0.00;0.62;0.00;0.00;0.62;5.93;2.50;;;27.50;31.50;;;;;;2238377;62;20438;-66
2021/06/24 02:37:03;0.00;0.00;0.62;0.00;0.00;0.62;3.20;2.90;;;27.50;31.60;;;;;;2238354;62;20369;-66
2021/06/24 02:40:03;0.00;0.00;0.62;0.00;0.00;0.62;3.63;2.77;;;27.50;31.60;;;;;;2237817;62;20379;-63
2021/06/24 02:42:32;0.00;0.00;0.62;0.00;0.00;0.62;3.03;2.70;;;27.50;31.60;;;;;;2242058;61;20838;-63
2021/06/24 02:45:00;0.00;0.00;0.62;0.00;0.00;0.62;3.73;2.77;;;27.50;31.50;;;;;;2238314;62;20359;-65
2021/06/24 02:47:28;0.00;0.00;0.62;0.00;0.00;0.62;2.80;2.27;;;27.50;31.50;;;;;;2238566;62;20363;-63
2021/06/24 02:49:55;0.00;0.00;0.62;0.00;0.00;0.62;4.60;2.90;;;27.50;31.50;;;;;;2242199;62;20363;-64
2021/06/24 02:52:23;0.00;0.00;0.62;0.00;0.00;0.62;3.87;3.00;;;27.50;31.50;;;;;;2238337;62;20454;-65
2021/06/24 02:54:51;0.00;0.00;0.62;0.00;0.00;0.62;2.60;2.20;;;27.50;31.60;;;;;;2238810;62;20367;-66
2021/06/24 02:57:20;0.00;0.00;0.62;0.00;0.00;0.62;3.47;2.60;;;27.50;31.50;;;;;;2238278;62;20367;-63
2021/06/24 03:00:11;0.00;0.00;0.62;0.00;0.00;0.62;3.40;2.90;;;27.50;31.60;;;;;;2241876;62;20359;-66
2021/06/24 03:02:42;0.00;0.00;0.62;0.00;0.00;0.62;3.70;2.47;;;27.50;31.50;;;;;;2238740;62;20395;-65
2021/06/24 03:05:11;0.00;0.00;0.62;0.00;0.00;0.62;3.43;2.83;;;27.50;31.50;;;;;;2242095;62;20371;-65
2021/06/24 03:07:38;0.00;0.00;0.62;0.00;0.00;0.62;4.20;2.90;;;27.50;31.50;;;;;;2238273;62;20359;-65
2021/06/24 03:10:24;0.00;0.00;0.62;0.00;0.00;0.62;5.53;2.37;;;27.50;31.50;;;;;;2241960;62;20367;-64
2021/06/24 03:12:53;0.00;0.00;0.62;0.00;0.00;0.62;8.33;3.00;;;27.50;31.50;;;;;;2238219;62;20582;-66
2021/06/24 03:15:20;0.00;0.00;0.62;0.00;0.00;0.62;2.67;2.20;;;27.50;31.50;;;;;;2238545;62;20364;-64
2021/06/24 03:17:48;0.00;0.00;0.62;0.00;0.00;0.62;3.37;2.33;;;27.50;31.50;;;;;;2238289;62;20374;-65
2021/06/24 03:20:16;0.00;0.00;0.62;0.00;0.00;0.62;3.57;2.50;;;27.40;31.50;;;;;;2238034;62;20739;-64
2021/06/24 03:22:44;0.00;0.00;0.62;0.00;0.00;0.62;3.67;2.73;;;27.50;31.50;;;;;;2238459;62;20413;-64
2021/06/24 03:25:14;0.00;0.00;0.62;0.00;0.00;0.62;4.60;3.57;;;27.50;31.50;;;;;;2238316;62;20352;-63
2021/06/24 03:27:40;0.00;0.00;0.62;0.00;0.00;0.62;3.53;2.93;;;27.50;31.40;;;;;;2237936;62;20718;-66
2021/06/24 03:30:25;0.00;0.00;0.62;0.00;0.00;0.62;4.90;2.90;;;27.40;31.30;;;;;;2238483;62;20655;-66
2021/06/24 03:32:53;0.00;0.00;0.62;0.00;0.00;0.62;4.90;3.03;;;27.40;31.30;;;;;;2238244;62;20379;-64
2021/06/24 03:35:21;0.00;0.00;0.62;0.00;0.00;0.62;6.63;3.10;;;27.40;31.30;;;;;;2238038;62;20990;-64
2021/06/24 03:37:48;0.00;0.00;0.62;0.00;0.00;0.62;3.40;2.87;;;27.40;31.30;;;;;;2238382;62;20391;-66
2021/06/24 03:40:17;0.00;0.00;0.62;0.00;0.00;0.62;3.17;2.70;;;27.40;31.30;;;;;;2238120;62;20586;-63
2021/06/24 03:42:46;0.00;0.00;0.62;0.00;0.00;0.62;3.93;3.30;;;27.40;31.30;;;;;;2238027;62;20387;-64
2021/06/24 03:45:15;0.00;0.00;0.62;0.00;0.00;0.62;3.40;2.77;;;27.40;31.30;;;;;;2238516;62;20402;-64
2021/06/24 03:47:42;0.00;0.00;0.62;0.00;0.00;0.62;4.10;2.53;;;27.40;31.30;;;;;;2238077;62;20359;-62
2021/06/24 03:50:14;0.00;0.00;0.62;0.00;0.00;0.62;4.57;2.73;;;27.40;31.30;;;;;;2237927;62;20693;-63
2021/06/24 03:52:42;0.00;0.00;0.62;0.00;0.00;0.62;4.03;3.03;;;27.40;31.30;;;;;;2242276;61;20383;-63
2021/06/24 03:55:11;0.00;0.00;0.62;0.00;0.00;0.62;4.20;3.33;;;27.40;31.30;;;;;;2241882;62;20619;-64
2021/06/24 03:57:37;0.00;0.00;0.62;0.00;0.00;0.62;3.93;3.00;;;27.40;31.30;;;;;;2237903;62;20705;-64
2021/06/24 04:00:22;0.00;0.00;0.62;0.00;0.00;0.62;3.20;2.90;;;27.40;31.30;;;;;;2235764;62;20359;-65
2021/06/24 04:02:48;0.00;0.00;0.62;0.00;0.00;0.62;3.50;2.87;;;27.40;31.30;;;;;;2241789;61;20388;-65
2021/06/24 04:05:44;0.00;0.00;0.62;0.00;0.00;0.62;4.13;3.03;;;27.30;31.20;;;;;;2238088;62;20374;-65
2021/06/24 04:08:11;0.00;0.00;0.62;0.00;0.00;0.62;4.90;3.07;;;27.30;31.20;;;;;;2238499;62;20364;-64
2021/06/24 04:10:38;0.00;0.00;0.62;0.00;0.00;0.62;6.03;4.03;;;27.30;31.30;;;;;;2237866;62;20734;-65
2021/06/24 04:13:06;0.00;0.00;0.62;0.00;0.00;0.62;6.20;3.20;;;27.30;31.30;;;;;;2238143;62;20411;-64
2021/06/24 04:15:35;0.00;0.00;0.62;0.00;0.00;0.62;6.17;3.10;;;27.40;31.30;;;;;;2242162;62;20463;-64
2021/06/24 04:18:04;0.00;0.00;0.62;0.00;0.00;0.62;5.27;3.30;;;27.30;31.30;;;;;;2237871;62;20367;-64
2021/06/24 04:20:34;0.00;0.00;0.62;0.00;0.00;0.62;3.63;3.17;;;27.30;31.30;;;;;;2237992;62;20359;-66
2021/06/24 04:23:08;0.00;0.00;0.62;0.00;0.00;0.62;3.77;2.97;;;27.30;31.30;;;;;;2238272;62;20612;-64
2021/06/24 04:25:58;0.00;0.00;0.62;0.00;0.00;0.62;4.50;3.07;;;27.30;31.30;;;;;;2240841;62;20438;-63
2021/06/24 04:28:25;0.00;0.00;0.62;0.00;0.00;0.62;4.27;2.97;;;27.30;31.30;;;;;;2241807;62;20363;-65
2021/06/24 04:31:04;0.00;0.00;0.62;0.00;0.00;0.62;4.67;2.50;;;27.30;31.40;;;;;;2238152;62;20463;-65
2021/06/24 04:33:33;0.00;0.00;0.62;0.00;0.00;0.62;6.57;3.53;;;27.30;31.40;;;;;;2241796;61;20430;-63
2021/06/24 04:36:19;0.00;0.00;0.62;0.00;0.00;0.62;3.63;3.00;;;27.30;31.40;;;;;;2241826;62;20370;-65
2021/06/24 04:38:50;0.00;0.00;0.62;0.00;0.00;0.62;3.33;3.03;;;27.30;31.40;;;;;;2238079;62;20409;-63
2021/06/24 04:41:17;0.00;0.00;0.62;0.00;0.00;0.62;7.73;3.50;;;27.20;31.40;;;;;;2238019;62;20368;-62
2021/06/24 04:44:00;0.00;0.00;0.62;0.00;0.00;0.62;4.30;2.80;;;27.20;31.50;;;;;;2241984;62;20438;-63
2021/06/24 04:46:30;0.00;0.00;0.62;0.00;0.00;0.62;3.70;2.70;;;27.20;31.50;;;;;;2237858;62;20431;-64
2021/06/24 04:48:57;0.00;0.00;0.62;0.00;0.00;0.62;3.60;3.00;;;27.20;31.50;;;;;;2238343;62;20406;-64
2021/06/24 04:51:42;0.00;0.00;0.62;0.00;0.00;0.62;4.13;3.00;;;27.30;31.60;;;;;;2241747;61;20351;-65
2021/06/24 04:54:11;0.00;0.00;0.62;0.00;0.00;0.62;5.70;2.83;;;27.20;31.50;;;;;;2238030;62;20356;-65
2021/06/24 04:56:40;0.00;0.00;0.62;0.00;0.00;0.62;2.63;2.30;;;27.20;31.50;;;;;;2241780;62;20446;-63
2021/06/24 04:59:07;0.00;0.00;0.62;0.00;0.00;0.62;3.57;2.47;;;27.20;31.50;;;;;;2238033;62;20661;-62
2021/06/24 05:01:52;0.00;0.00;0.62;0.00;0.00;0.62;4.20;2.80;;;27.20;31.50;;;;;;2241671;61;20688;-66
2021/06/24 05:04:38;0.00;0.00;0.62;0.00;0.00;0.62;4.83;2.70;;;27.20;31.50;;;;;;2241645;62;20416;-66
2021/06/24 05:07:09;0.00;0.00;0.62;0.00;0.00;0.62;2.97;2.37;;;27.20;31.50;;;;;;2241505;62;20371;-64
2021/06/24 05:09:41;0.00;0.00;0.62;0.00;0.00;0.62;3.53;2.80;;;27.20;31.50;;;;;;2237260;62;20361;-67
2021/06/24 05:12:10;0.00;0.00;0.62;0.00;0.00;0.62;4.93;2.50;;;27.20;31.60;;;;;;2241091;61;20423;-67
2021/06/24 05:14:38;0.00;0.00;0.62;0.00;0.00;0.62;3.47;2.50;;;27.30;31.60;;;;;;2241437;62;20387;-64
2021/06/24 05:17:06;0.00;0.00;0.62;0.00;0.00;0.62;4.17;2.90;;;27.20;31.60;;;;;;2237439;62;20356;-66
2021/06/24 05:19:33;0.00;0.00;0.62;0.00;0.00;0.62;3.30;2.70;;;27.20;31.60;;;;;;2241051;62;20364;-64
2021/06/24 05:22:00;0.00;0.00;0.62;0.00;0.00;0.62;5.20;2.63;;;27.30;31.60;;;;;;2241351;61;20700;-63
2021/06/24 05:24:27;0.00;0.00;0.62;0.00;0.00;0.62;4.20;2.83;;;27.30;31.60;;;;;;2241164;62;20398;-63
2021/06/24 05:26:54;0.00;0.00;0.62;0.00;0.00;0.62;3.10;2.47;;;27.30;31.60;;;;;;2241132;62;20360;-65
2021/06/24 05:29:21;0.00;0.00;0.62;0.00;0.00;0.62;3.73;2.70;;;27.30;31.60;;;;;;2241381;62;20452;-66
2021/06/24 05:31:48;0.00;0.00;0.62;0.00;0.00;0.62;6.07;3.50;;;27.30;31.60;;;;;;2241035;61;20431;-66
2021/06/24 05:34:15;0.00;0.00;0.62;0.00;0.00;0.62;5.50;3.30;;;27.30;31.60;;;;;;2241065;62;20974;-66
2021/06/24 05:36:42;0.00;0.00;0.62;0.00;0.00;0.62;3.80;3.30;;;27.30;31.60;;;;;;2241469;62;20685;-65
2021/06/24 05:39:09;0.00;0.00;0.62;0.00;0.00;0.62;7.60;3.43;;;27.30;31.60;;;;;;2241029;62;20370;-65
2021/06/24 05:41:36;0.00;0.00;0.62;0.00;0.00;0.62;5.60;3.57;;;27.30;31.60;;;;;;2240891;62;20359;-66
2021/06/24 05:44:04;0.00;0.00;0.62;0.00;0.00;0.62;3.60;3.27;;;27.40;31.70;;;;;;2241319;62;20430;-66
2021/06/24 05:46:31;0.00;0.00;0.62;0.00;0.00;0.62;4.27;3.33;;;27.30;31.60;;;;;;2241084;62;20593;-66
2021/06/24 05:48:57;0.00;0.00;0.62;0.00;0.00;0.62;3.97;2.90;;;27.30;31.60;;;;;;2240998;62;20366;-66
2021/06/24 05:51:24;0.00;0.00;0.62;0.00;0.00;0.62;6.77;3.70;;;27.40;31.70;;;;;;2241914;62;20586;-66
2021/06/24 05:53:51;0.00;0.00;0.62;0.00;0.00;0.62;5.47;3.50;;;27.30;31.60;;;;;;2241642;62;20376;-65
2021/06/24 05:56:19;0.00;0.00;0.62;0.00;0.00;0.62;7.67;3.90;;;27.30;31.60;;;;;;2241708;62;20474;-65
2021/06/24 05:58:46;0.00;0.00;0.62;0.00;0.00;0.62;7.07;4.00;;;27.30;31.60;;;;;;2242094;62;20372;-66
2021/06/24 06:01:15;0.00;0.00;0.62;0.00;0.00;0.62;5.10;3.67;;;27.30;31.60;;;;;;2241685;62;20359;-66
2021/06/24 06:03:41;0.00;0.00;0.62;0.00;0.00;0.62;4.77;3.60;;;27.30;31.60;;;;;;2241655;62;20395;-65
2021/06/24 06:06:08;0.00;0.00;0.62;0.00;0.00;0.62;4.40;3.50;;;27.30;31.60;;;;;;2242244;62;20355;-65
2021/06/24 06:08:34;0.00;0.00;0.62;0.00;0.00;0.62;5.47;3.77;;;27.30;31.60;;;;;;2241830;62;20367;-66
2021/06/24 06:11:01;0.00;0.00;0.62;0.00;0.00;0.62;3.60;3.20;;;27.30;31.60;;;;;;2241566;62;20355;-66
2021/06/24 06:13:27;0.00;0.00;0.62;0.00;0.00;0.62;6.50;3.80;;;27.30;31.60;;;;;;2241880;61;20379;-65
2021/06/24 06:15:54;0.00;0.00;0.62;0.00;0.00;0.62;4.30;3.13;;;27.30;31.60;;;;;;2241555;62;20367;-66
2021/06/24 06:18:24;0.00;0.00;0.62;0.00;0.00;0.62;4.33;3.07;;;27.30;31.60;;;;;;2241528;62;20784;-66
2021/06/24 06:20:53;0.00;0.00;0.62;0.00;0.00;0.62;6.50;3.60;;;27.20;31.50;;;;;;2238270;62;20611;-66
2021/06/24 06:23:22;0.00;0.00;0.62;0.00;0.00;0.62;4.17;3.00;;;27.20;32.20;;;;;;2241605;61;20616;-65
2021/06/24 06:25:49;0.00;0.00;0.62;0.00;0.00;0.62;4.47;3.07;;;27.30;31.60;;;;;;2241639;62;20355;-65
2021/06/24 06:28:21;0.00;0.00;0.62;0.00;0.00;0.62;4.10;2.90;;;27.30;31.60;;;;;;2241939;62;20370;-65
2021/06/24 06:30:48;0.00;0.00;0.62;0.00;0.00;0.62;3.57;3.10;;;27.30;31.60;;;;;;2241591;62;20717;-66
2021/06/24 06:33:15;0.00;0.00;0.62;0.00;0.00;0.62;5.43;3.90;;;27.30;31.60;;;;;;2241593;61;20410;-65
2021/06/24 06:35:44;0.00;0.00;0.62;0.00;0.00;0.62;5.00;3.30;;;27.20;31.50;;;;;;2241985;62;20402;-65
2021/06/24 06:38:11;0.00;0.00;0.62;0.00;0.00;0.62;6.50;4.07;;;27.20;31.50;;;;;;2241530;62;20367;-66
2021/06/24 06:40:39;0.00;0.00;0.62;0.00;0.00;0.62;4.00;3.20;;;27.20;31.50;;;;;;2241510;62;20450;-65
2021/06/24 06:43:05;0.00;0.00;0.62;0.00;0.00;0.62;4.13;3.73;;;27.20;31.60;;;;;;2238299;62;20657;-66
2021/06/24 06:45:33;0.00;0.00;0.62;0.00;0.00;0.62;8.40;3.67;;;27.20;31.50;;;;;;2241791;62;20423;-67
2021/06/24 06:48:00;0.00;0.00;0.62;0.00;0.00;0.62;5.13;3.40;;;27.20;31.50;;;;;;2241608;62;20700;-67
2021/06/24 06:50:27;0.00;0.00;0.62;0.00;0.00;0.62;6.10;4.00;;;27.20;31.50;;;;;;2241812;62;20409;-66
2021/06/24 06:52:56;0.00;0.00;0.62;0.00;0.00;0.62;5.63;4.10;;;27.20;31.50;;;;;;2241728;61;20588;-64
2021/06/24 06:55:28;0.00;0.00;0.62;0.00;0.00;0.62;6.47;3.73;;;27.20;31.50;;;;;;2241670;62;20595;-65
2021/06/24 06:57:55;0.00;0.00;0.62;0.00;0.00;0.62;6.50;3.63;;;27.20;31.50;;;;;;2241824;62;20407;-65
2021/06/24 07:00:24;0.00;0.00;0.62;0.00;0.00;0.62;4.10;3.53;;;27.10;31.40;;;;;;2241400;62;20443;-65
2021/06/24 07:02:51;0.00;0.00;0.62;0.00;0.00;0.62;5.40;3.33;;;27.10;31.40;;;;;;2241251;61;20392;-65
2021/06/24 07:05:18;0.00;0.00;0.62;0.00;0.00;0.62;6.50;3.43;;;27.10;31.50;;;;;;2241919;62;20405;-65
2021/06/24 07:07:45;0.00;0.00;0.62;0.00;0.00;0.62;3.73;3.03;;;27.20;31.50;;;;;;2237901;62;20591;-66
2021/06/24 07:10:16;0.00;0.00;0.62;0.00;0.00;0.62;5.67;3.87;;;27.10;31.40;;;;;;2241452;62;20363;-65
2021/06/24 07:12:42;0.00;0.00;0.62;0.00;0.00;0.62;3.87;3.00;;;27.10;31.50;;;;;;2241911;61;20427;-65
2021/06/24 07:15:11;0.00;0.00;0.62;0.00;0.00;0.62;4.50;3.87;;;27.10;31.60;;;;;;2241639;62;20367;-67
2021/06/24 07:17:38;0.00;0.00;0.62;0.00;0.00;0.62;5.17;3.40;;;27.10;31.60;;;;;;2241443;62;20580;-65
2021/06/24 07:20:07;0.00;0.00;0.62;0.00;0.00;0.62;7.93;3.47;;;27.10;31.60;;;;;;2241697;62;20439;-65
2021/06/24 07:22:34;0.00;0.00;0.62;0.00;0.00;0.62;6.47;3.70;;;27.10;31.60;;;;;;2241403;61;20391;-65
2021/06/24 07:25:02;0.00;0.00;0.62;0.00;0.00;0.62;3.73;2.90;;;27.10;31.70;;;;;;2237478;62;20623;-66
2021/06/24 07:27:29;0.00;0.00;0.62;0.00;0.00;0.62;6.60;4.03;;;27.10;31.70;;;;;;2241066;62;20359;-65
2021/06/24 07:29:56;0.00;0.00;0.62;0.00;0.00;0.62;3.90;3.27;;;27.10;31.70;;;;;;2241345;62;20360;-66
2021/06/24 07:32:23;0.00;0.00;0.62;0.00;0.00;0.62;5.53;3.03;;;27.10;31.70;;;;;;2241460;61;20386;-65
2021/06/24 07:34:49;0.00;0.00;0.62;0.00;0.00;0.62;5.57;4.27;;;27.10;31.70;;;;;;2241843;62;20408;-66
2021/06/24 07:37:16;0.00;0.00;0.62;0.00;0.00;0.62;8.17;4.13;;;27.10;31.70;;;;;;2237769;62;20631;-67
2021/06/24 07:39:43;0.00;0.00;0.62;0.00;0.00;0.62;6.50;4.00;;;27.10;31.80;;;;;;2241311;62;20359;-66
2021/06/24 07:42:09;0.00;0.00;0.62;0.00;0.00;0.62;6.17;3.80;;;27.10;31.80;;;;;;2241627;61;20379;-66
2021/06/24 07:44:37;0.00;0.00;0.62;0.00;0.00;0.62;5.57;3.70;;;27.10;31.80;;;;;;2241369;62;20387;-66
2021/06/24 07:47:04;0.00;0.00;0.62;0.00;0.00;0.62;7.50;4.13;;;27.10;31.80;;;;;;2241409;62;20381;-66
2021/06/24 07:49:30;0.00;0.00;0.62;0.00;0.00;0.62;6.93;3.97;;;27.10;31.80;;;;;;2241657;62;20692;-65
2021/06/24 07:51:57;0.00;0.00;0.62;0.00;0.00;0.62;5.10;4.40;;;27.10;31.90;;;;;;2241438;61;20438;-65
2021/06/24 07:54:23;0.00;0.00;0.62;0.00;0.00;0.62;4.50;4.10;;;27.10;31.90;;;;;;2241426;62;20360;-66
2021/06/24 07:56:50;0.00;0.00;0.62;0.00;0.00;0.62;7.83;3.40;;;27.10;31.90;;;;;;2241696;62;20359;-66
2021/06/24 07:59:17;0.00;0.00;0.62;0.00;0.00;0.62;5.07;3.50;;;27.10;31.90;;;;;;2237638;62;20370;-65
2021/06/24 08:01:45;0.00;0.00;0.62;0.00;0.00;0.62;7.50;4.27;;;27.00;31.90;;;;;;2237582;61;20641;-66
2021/06/24 08:04:12;0.00;0.00;0.62;0.00;0.00;0.62;5.50;3.80;;;27.10;32.00;;;;;;2241696;62;20454;-66
2021/06/24 08:06:38;0.00;0.00;0.62;0.00;0.00;0.62;6.13;4.20;;;27.00;32.00;;;;;;2237650;62;20704;-65
2021/06/24 08:09:06;0.00;0.00;0.62;0.00;0.00;0.62;5.13;4.20;;;27.00;32.00;;;;;;2241359;62;20692;-65
2021/06/24 08:11:33;0.00;0.00;0.62;0.00;0.00;0.62;6.23;3.93;;;27.00;32.00;;;;;;2241588;62;20708;-64
2021/06/24 08:13:59;0.00;0.00;0.62;0.00;0.00;0.62;5.00;4.47;;;27.00;32.00;;;;;;2241423;61;20390;-65
2021/06/24 08:16:27;0.00;0.00;0.62;0.00;0.00;0.62;5.30;4.43;;;27.00;32.00;;;;;;2241470;62;20439;-66
2021/06/24 08:18:55;0.00;0.00;0.62;0.00;0.00;0.62;7.73;4.60;;;27.00;32.10;;;;;;2241714;62;20441;-66
2021/06/24 08:21:21;0.00;0.00;0.62;0.00;0.00;0.62;5.87;4.20;;;27.00;32.10;;;;;;2241426;62;20818;-66
2021/06/24 08:23:48;0.00;0.00;0.62;0.00;0.00;0.62;6.97;4.93;;;27.00;32.20;;;;;;2241387;62;20443;-66
2021/06/24 08:26:15;0.00;0.00;0.62;0.00;0.00;0.62;5.50;4.50;;;27.00;32.20;;;;;;2241707;62;20355;-65
2021/06/24 08:28:42;0.00;0.00;0.62;0.00;0.00;0.62;7.03;4.30;;;26.90;32.20;;;;;;2241476;62;20368;-66
2021/06/24 08:31:09;0.00;0.00;0.62;0.00;0.00;0.62;8.93;4.27;;;27.00;32.30;;;;;;2241364;62;20423;-65
2021/06/24 08:33:35;0.00;0.00;0.62;0.00;0.00;0.62;8.37;4.37;;;27.00;32.30;;;;;;2241741;61;20731;-65
2021/06/24 08:36:04;0.00;0.00;0.62;0.00;0.00;0.62;5.20;4.30;;;26.90;32.30;;;;;;2241488;62;20352;-65
2021/06/24 08:38:30;0.00;0.00;0.62;0.00;0.00;0.62;6.40;4.67;;;26.90;32.20;;;;;;2241339;62;20363;-65
2021/06/24 08:40:57;0.00;0.00;0.62;0.00;0.00;0.62;4.37;3.97;;;26.90;32.30;;;;;;2241350;62;20771;-65
2021/06/24 08:43:23;0.00;0.00;0.62;0.00;0.00;0.62;6.13;4.80;;;26.90;32.30;;;;;;2241425;61;20405;-68
2021/06/24 08:45:50;0.00;0.00;0.62;0.00;0.00;0.62;6.90;4.27;;;26.90;32.30;;;;;;2241428;62;20362;-66
2021/06/24 08:48:19;0.00;0.00;0.62;0.00;0.00;0.62;6.67;4.23;;;27.00;32.40;;;;;;2241701;62;20387;-65
2021/06/24 08:50:50;0.00;0.00;0.62;0.00;0.00;0.62;4.87;4.37;;;26.90;32.40;;;;;;2241103;62;20430;-65
2021/06/24 08:53:20;0.00;0.00;0.62;0.00;0.00;0.62;4.63;4.20;;;27.00;32.50;;;;;;2241389;62;20419;-66
2021/06/24 08:55:51;0.00;0.00;0.62;0.00;0.00;0.62;9.77;5.27;;;27.00;32.50;;;;;;2241723;62;20399;-66
2021/06/24 08:58:18;0.00;0.00;0.62;0.00;0.00;0.62;5.57;3.97;;;26.90;32.40;;;;;;2241302;62;20703;-66
2021/06/24 09:00:44;0.00;0.00;0.62;0.00;0.00;0.62;5.13;4.27;;;27.00;32.50;;;;;;2237487;62;20647;-66
2021/06/24 09:03:17;0.00;0.00;0.62;0.00;0.00;0.62;4.63;4.13;;;27.00;32.50;;;;;;2241643;61;20388;-65
2021/06/24 09:05:53;0.00;0.00;0.62;0.00;0.00;0.62;7.83;4.90;;;26.90;32.50;;;;;;2241316;62;20367;-64
2021/06/24 09:08:33;0.00;0.00;0.62;0.00;0.00;0.62;6.23;5.03;;;26.90;32.50;;;;;;2241381;62;20359;-65
2021/06/24 09:11:18;0.00;0.00;0.62;0.00;0.00;0.62;7.27;4.70;;;26.90;32.50;;;;;;2237884;62;20699;-66
2021/06/24 09:14:00;0.00;0.00;0.62;0.00;0.00;0.62;5.90;4.80;;;26.90;32.50;;;;;;2241353;62;20382;-66
2021/06/24 09:16:30;0.00;0.00;0.62;0.00;0.00;0.62;8.13;4.50;;;26.90;32.60;;;;;;2241243;62;20666;-65
2021/06/24 09:19:15;0.00;0.00;0.62;0.00;0.00;0.62;5.30;3.77;;;26.90;32.60;;;;;;2241376;62;20422;-65
2021/06/24 09:21:44;0.00;0.00;0.62;0.00;0.00;0.62;7.10;3.90;;;26.90;32.60;;;;;;2241033;61;20384;-65
2021/06/24 09:24:28;0.00;0.00;0.62;0.00;0.00;0.62;5.40;4.13;;;26.90;32.70;;;;;;2240985;62;20391;-65
2021/06/24 09:26:59;0.00;0.00;0.62;0.00;0.00;0.62;5.40;4.37;;;26.90;32.60;;;;;;2237688;62;20360;-65
2021/06/24 09:29:26;0.00;0.00;0.62;0.00;0.00;0.62;4.73;4.13;;;26.90;32.60;;;;;;2241188;62;20360;-64
2021/06/24 09:31:55;0.00;0.00;0.62;0.00;0.00;0.62;4.63;4.03;;;26.90;32.60;;;;;;2241231;61;20359;-65
2021/06/24 09:34:22;0.00;0.00;0.62;0.00;0.00;0.62;4.63;3.93;;;26.90;32.60;;;;;;2241576;62;20382;-67
2021/06/24 09:36:51;0.00;0.00;0.62;0.00;0.00;0.62;5.20;4.00;;;26.90;32.60;;;;;;2241218;62;20609;-65
2021/06/24 09:39:36;0.00;0.00;0.62;0.00;0.00;0.62;4.43;3.77;;;26.90;32.60;;;;;;2241152;62;20355;-65
2021/06/24 09:42:07;0.00;0.00;0.62;0.00;0.00;0.62;4.80;4.20;;;26.90;32.60;;;;;;2241608;61;20423;-66
2021/06/24 09:44:36;0.00;0.00;0.62;0.00;0.00;0.62;4.73;3.90;;;26.90;32.50;;;;;;2241294;62;20398;-64
2021/06/24 09:47:16;0.00;0.00;0.62;0.00;0.00;0.62;6.40;4.37;;;26.90;32.50;;;;;;2241251;62;20367;-65
2021/06/24 09:49:55;0.00;0.00;0.62;0.00;0.00;0.62;5.00;3.97;;;26.90;32.50;;;;;;2241484;62;20363;-67
2021/06/24 09:52:21;0.00;0.00;0.62;0.00;0.00;0.62;4.50;3.70;;;26.90;32.40;;;;;;2241419;61;20422;-67